x

West Sea Otter (46204) Wave Buoy

3:00 - Sat 27th May 2017 All times are PDT. -7 hours from GMT.

  • Sig Wave height 4.3ft
  • Peak Period 11s
  • Wind
    9mph, 11mph gusts
  • Sea Temp 54°f
  • Ar Temp 51°f
  • Sea Pressure 1020.5mb
  • West Sea Otter
  • West Sea Otter

More Historic Weather Station data

Upgrade to MSW Pro to gain access to the past 30 days of data for over 8000 Wavebouys and Weather Stations around the globe.

Join Pro

Comparision Forecast

View Surf forecast
   
Sáb 05/27 3:00 4.5ft 11s 9 11 mph 1020.5mb 54f 51f
2:00 4.5ft 10s 7 9 mph 1020.7mb 54f 50f
1:00 5ft 6s 7 9 mph 1020.8mb 53f 50f
12:00 5ft 5s 4 9 mph 1020.9mb 53f 51f
11:00 5ft 7s 7 9 mph 1020.8mb 53f 51f
10:00 5ft 11s 7 9 mph 1020.8mb 52f 51f
9:00 4.5ft 11s 9 11 mph 1020.8mb 52f 51f
8:00 4.5ft 10s 11 11 mph 1020.4mb 52f 51f
7:00 4.5ft 7s 11 13 mph 1020.1mb 52f 51f
6:00 4.5ft 7s 13 16 mph 1019.8mb 52f 51f
5:00 4.5ft 12s 16 18 mph 1019.4mb 52f 51f
4:00 4.5ft 8s 16 20 mph 1019.3mb 52f 51f
3:00 5ft 10s 18 20 mph 1019.2mb 52f 51f
2:00 5ft 10s 13 18 mph 1019.3mb 52f 51f
1:00 5ft 6s 13 16 mph 1019.3mb 52f 51f
12:00 5ft 10s 13 16 mph 1019.1mb 52f 51f
Sex 05/26 11:00 5ft 7s 11 16 mph 1019.3mb 52f 51f
10:00 6ft 8s 11 13 mph 1019.3mb 52f 51f
9:00 5.5ft 10s 13 16 mph 1019.1mb 52f 51f
8:00 5ft 8s 13 18 mph 1018.9mb 52f 51f
7:00 5ft 8s 13 16 mph 1019.1mb 52f 51f
6:00 5ft 8s 16 18 mph 1019.1mb 52f 51f
5:00 6ft 7s 16 20 mph 1018.9mb 52f 51f
4:00 6ft 7s 16 20 mph 1018.8mb 52f 49f
3:00 7ft 7s 18 20 mph 1018.8mb 52f 49f
2:00 8ft 8s 18 20 mph 1018.5mb 52f 50f
1:00 8ft 7s 18 20 mph 1018.4mb 52f 50f
12:00 8ft 8s 18 22 mph 1018.2mb 52f 50f
11:00 7.5ft 7s 18 22 mph 1018mb 52f 49f
10:00 8ft 8s 18 22 mph 1017.8mb 52f 49f
9:00  -   -  18
mph
- - -
8:00 8ft 8s 18 22 mph 1017.3mb 52f 49f
7:00 8ft 7s 18 22 mph 1017.1mb 51f 49f
6:00 7.5ft 8s 20 25 mph 1016.6mb 52f 49f
5:00 7.5ft 8s 20 27 mph 1016.3mb 52f 49f
4:00 7.5ft 9s 22 27 mph 1016.2mb 52f 49f
3:00 7.5ft 8s 20 27 mph 1016mb 52f 50f
2:00 8ft 8s 20 27 mph 1015.7mb 52f 50f
1:00 8ft 8s 20 25 mph 1015.5mb 52f 51f
12:00 8ft 7s 18 25 mph 1015.5mb 52f 51f
Qui 05/25 11:00 8ft 8s 20 22 mph 1015.4mb 52f 51f
10:00 8.5ft 8s 22 27 mph 1015.5mb 52f 51f
9:00 8.5ft 8s 20 25 mph 1015.3mb 52f 51f
8:00 9ft 8s 20 27 mph 1015.4mb 52f 51f
7:00  -   -  22
mph
1015.4mb - 51f
6:00 8ft 7s 22 27 mph 1015.6mb 52f 51f
5:00 8.5ft 10s 22 27 mph 1015.7mb 52f 51f
4:00 9ft 8s 25 29 mph 1015.7mb 52f 51f
3:00 9.5ft 8s 25 29 mph 1015.8mb 51f 51f
2:00 9ft 8s 22 27 mph 1015.8mb 51f 51f
1:00 10ft 8s 22 27 mph 1015.7mb 51f 51f
12:00 10ft 8s 22 27 mph 1016mb 51f 50f
11:00 10.5ft 8s 22 27 mph 1016mb 51f 50f
10:00 10.5ft 8s 25 29 mph 1016.2mb 51f 50f
9:00 10ft 8s 25 29 mph 1016.3mb 51f 50f
8:00 11ft 10s 25 29 mph 1016.2mb 51f 50f
7:00 11ft 10s 27 31 mph 1016.2mb 51f 49f
6:00 10ft 8s 27 31 mph 1016.3mb 51f 49f
5:00  -   -  27
mph
1016.3mb 51f 49f
4:00 9.5ft 8s 27 34 mph 1016.7mb 51f 49f
3:00 10ft 8s 27 31 mph 1016.8mb 50f 49f
2:00 10.5ft 10s 27 31 mph 1016.9mb 51f 50f
1:00 10ft 10s 27 31 mph 1017mb 50f 50f
12:00 11ft 10s 25 29 mph 1017.4mb 50f 50f
Qua 05/24 11:00 10ft 9s 25 29 mph 1017.7mb 50f 50f
10:00 11ft 10s 25 31 mph 1018.1mb 51f 50f
9:00 11ft 10s 22 29 mph 1018.5mb 51f 50f
8:00 11ft 9s 25 31 mph 1018.9mb 51f 51f
7:00 11ft 11s 22 29 mph 1019.4mb 51f 51f
6:00 11ft 11s 25 29 mph 1019.8mb 51f 51f
5:00 12.5ft 10s 27 31 mph 1020mb 51f 50f
4:00 11ft 8s 27 36 mph 1020.2mb 51f 50f
3:00 12.5ft 10s 29 36 mph 1020.5mb 51f 50f
2:00 13ft 8s 29 34 mph 1020.6mb 51f 50f
1:00 14ft 9s 29 36 mph 1020.7mb 51f 50f
12:00 14.5ft 8s 31 36 mph 1020.9mb 51f 50f
11:00 15.5ft 8s 29 34 mph 1021.1mb 51f 50f
10:00 15.5ft 8s 31 40 mph 1021.4mb 51f 49f
9:00 14ft 8s 31 40 mph 1021.1mb 51f 50f
8:00 13.5ft 9s 31 36 mph 1021.2mb 52f 50f
7:00 12ft 10s 31 38 mph 1021mb 51f 50f
6:00 10.5ft 10s 27 34 mph 1021.4mb 51f 51f
5:00  -   -  25
mph
- - 51f
4:00 10ft 9s 25 36 mph 1020.8mb 52f 52f
3:00 9.5ft 10s 27 31 mph 1020.5mb 52f 52f
2:00 9.5ft 9s 22 27 mph 1020.4mb 52f 51f
1:00 10ft 10s 20
mph
1020.2mb 52f 51f
12:00 9.5ft 10s 20 25 mph 1019.9mb 52f 51f